createdAt,value
2023-05-18T00:00:45.756Z,42.96
2023-05-18T00:01:48.389Z,42.87
2023-05-18T00:02:50.823Z,42.99
2023-05-18T00:03:55.190Z,42.97
2023-05-18T00:04:57.926Z,43.21
2023-05-18T00:06:04.994Z,43.29
2023-05-18T00:07:07.429Z,43.22
2023-05-18T00:08:10.066Z,43.15
2023-05-18T00:09:12.738Z,43.41
2023-05-18T00:10:15.125Z,43.39
2023-05-18T00:11:18.094Z,43.42
2023-05-18T00:12:20.571Z,43.25
2023-05-18T00:13:22.872Z,43.33
2023-05-18T00:14:25.343Z,43.46
2023-05-18T00:15:27.901Z,43.43
2023-05-18T00:16:30.378Z,43.47
2023-05-18T00:17:33.143Z,43.60
2023-05-18T00:18:36.238Z,43.54
2023-05-18T00:19:38.510Z,43.55
2023-05-18T00:20:41.482Z,43.65
2023-05-18T00:21:46.448Z,43.60
2023-05-18T00:22:51.003Z,43.77
2023-05-18T00:23:53.410Z,43.74
2023-05-18T00:24:55.756Z,44.04
2023-05-18T00:26:02.418Z,44.01
2023-05-18T00:27:04.838Z,44.00
2023-05-18T00:28:07.893Z,43.89
2023-05-18T00:29:10.887Z,44.00
2023-05-18T00:30:13.728Z,44.10
2023-05-18T00:31:16.537Z,44.26
2023-05-18T00:32:18.949Z,44.27
2023-05-18T00:33:22.293Z,44.20
2023-05-18T00:34:25.044Z,44.15
2023-05-18T00:35:27.457Z,44.29
2023-05-18T00:36:30.054Z,44.50
2023-05-18T00:37:32.394Z,44.48
2023-05-18T00:38:34.764Z,44.51
2023-05-18T00:39:37.917Z,44.61
2023-05-18T00:40:40.383Z,44.71
2023-05-18T00:41:42.777Z,44.71
2023-05-18T00:42:45.052Z,44.73
2023-05-18T00:43:47.871Z,44.73
2023-05-18T00:44:50.332Z,44.85
2023-05-18T00:45:52.725Z,44.84
2023-05-18T00:46:55.055Z,44.99
2023-05-18T00:47:57.507Z,44.99
2023-05-18T00:49:02.288Z,45.18
2023-05-18T00:50:04.958Z,45.24
2023-05-18T00:51:07.681Z,45.25
2023-05-18T00:52:10.241Z,45.34
2023-05-18T00:53:13.380Z,45.30
2023-05-18T00:54:16.917Z,45.32
2023-05-18T00:55:19.895Z,45.51
2023-05-18T00:56:26.585Z,45.54
2023-05-18T00:57:30.000Z,45.76
2023-05-18T00:58:32.408Z,45.86
2023-05-18T00:59:35.064Z,45.88
2023-05-18T01:00:37.930Z,45.91
2023-05-18T01:01:46.971Z,45.80
2023-05-18T01:02:51.597Z,45.96
2023-05-18T01:03:56.882Z,46.01
2023-05-18T01:05:00.918Z,46.04
2023-05-18T01:06:05.989Z,46.02
2023-05-18T01:07:08.457Z,46.23
2023-05-18T01:08:10.984Z,46.28
2023-05-18T01:09:14.608Z,46.36
2023-05-18T01:10:20.010Z,46.46
2023-05-18T01:11:54.944Z,46.23
2023-05-18T01:13:03.134Z,46.29
2023-05-18T01:14:29.281Z,46.42
2023-05-18T01:15:37.516Z,46.70
2023-05-18T01:16:45.965Z,46.86
2023-05-18T01:18:05.075Z,46.82
2023-05-18T01:19:30.922Z,46.76
2023-05-18T01:20:57.882Z,46.91
2023-05-18T01:22:17.358Z,47.01
2023-05-18T01:23:45.113Z,47.17
2023-05-18T01:24:49.398Z,47.44
2023-05-18T01:25:54.493Z,47.38
2023-05-18T01:27:00.924Z,47.67
2023-05-18T01:28:10.361Z,47.59
2023-05-18T01:29:14.545Z,47.64
2023-05-18T01:30:18.335Z,47.58
2023-05-18T01:31:21.033Z,47.70
2023-05-18T01:32:23.408Z,47.59
2023-05-18T01:33:26.542Z,47.77
2023-05-18T01:34:29.151Z,47.96
2023-05-18T01:35:32.771Z,47.99
2023-05-18T01:36:35.182Z,47.91
2023-05-18T01:37:37.479Z,47.95
2023-05-18T01:38:43.121Z,48.00
2023-05-18T01:39:46.419Z,48.08
2023-05-18T01:41:18.437Z,47.92
2023-05-18T01:42:27.131Z,48.12
2023-05-18T01:43:36.674Z,48.09
2023-05-18T01:45:07.843Z,48.21
2023-05-18T01:46:28.527Z,47.94
2023-05-18T01:47:33.697Z,48.16
2023-05-18T01:48:39.304Z,48.25
2023-05-18T01:49:54.749Z,48.40
2023-05-18T01:50:58.927Z,48.30
2023-05-18T01:52:07.605Z,48.46
2023-05-18T01:53:15.725Z,48.44
2023-05-18T01:54:21.432Z,48.53
2023-05-18T01:55:27.157Z,48.60
2023-05-18T01:56:32.263Z,48.66
2023-05-18T01:57:37.119Z,48.77
2023-05-18T01:58:40.398Z,48.84
2023-05-18T01:59:43.328Z,49.08
2023-05-18T02:00:47.165Z,49.01
2023-05-18T02:01:50.945Z,49.19
2023-05-18T02:03:02.163Z,49.16
2023-05-18T02:04:12.008Z,49.04
2023-05-18T02:05:14.633Z,49.20
2023-05-18T02:06:17.279Z,49.29
2023-05-18T02:07:20.051Z,49.28
2023-05-18T02:08:22.458Z,49.49
2023-05-18T02:09:24.854Z,49.47
2023-05-18T02:10:27.325Z,49.33
2023-05-18T02:11:30.278Z,49.53
2023-05-18T02:12:33.632Z,49.71
2023-05-18T02:13:38.350Z,49.68
2023-05-18T02:14:40.783Z,49.73
2023-05-18T02:15:44.763Z,49.78
2023-05-18T02:16:53.451Z,49.59
2023-05-18T02:17:58.634Z,49.69
2023-05-18T02:19:01.269Z,49.84
2023-05-18T02:20:07.468Z,49.84
2023-05-18T02:21:10.637Z,49.78
2023-05-18T02:22:13.004Z,49.87
2023-05-18T02:23:16.230Z,49.87
2023-05-18T02:24:20.155Z,49.84
2023-05-18T02:25:22.629Z,49.84
2023-05-18T02:26:25.017Z,49.88
2023-05-18T02:27:28.473Z,49.74
2023-05-18T02:28:30.936Z,49.92
2023-05-18T02:29:33.305Z,49.95
2023-05-18T02:30:35.968Z,49.99
2023-05-18T02:31:39.062Z,49.97
2023-05-18T02:32:42.901Z,50.03
2023-05-18T02:33:45.236Z,50.11
2023-05-18T02:34:50.442Z,50.04
2023-05-18T02:35:55.153Z,50.08
2023-05-18T02:36:58.262Z,50.31
2023-05-18T02:38:01.830Z,50.28
2023-05-18T02:39:07.027Z,50.34
2023-05-18T02:40:11.162Z,50.39
2023-05-18T02:41:13.694Z,50.38
2023-05-18T02:42:15.998Z,50.34
2023-05-18T02:43:18.351Z,50.36
2023-05-18T02:44:20.725Z,50.41
2023-05-18T02:45:24.259Z,50.28
2023-05-18T02:46:26.887Z,50.18
2023-05-18T02:47:29.608Z,50.42
2023-05-18T02:48:31.993Z,50.43
2023-05-18T02:49:34.558Z,50.26
2023-05-18T02:50:37.098Z,50.35
2023-05-18T02:51:40.016Z,50.28
2023-05-18T02:52:42.415Z,50.43
2023-05-18T02:53:45.204Z,50.40
2023-05-18T02:54:49.994Z,50.45
2023-05-18T02:55:59.510Z,50.22
2023-05-18T02:57:06.733Z,50.27
2023-05-18T02:58:17.689Z,50.35
2023-05-18T02:59:34.742Z,50.47
2023-05-18T03:00:37.137Z,50.57
2023-05-18T03:01:41.297Z,50.63
2023-05-18T03:02:44.668Z,50.50
2023-05-18T03:03:47.496Z,50.61
2023-05-18T03:04:54.513Z,50.70
2023-05-18T03:05:56.909Z,50.64
2023-05-18T03:07:03.007Z,50.60
2023-05-18T03:08:06.863Z,50.68
2023-05-18T03:09:09.222Z,50.63
2023-05-18T03:10:16.916Z,50.83
2023-05-18T03:11:19.279Z,50.76
2023-05-18T03:12:21.876Z,50.66
2023-05-18T03:13:24.919Z,50.77
2023-05-18T03:14:27.326Z,50.72
2023-05-18T03:15:33.269Z,50.68
2023-05-18T03:16:39.050Z,50.85
2023-05-18T03:17:45.987Z,50.86
2023-05-18T03:18:48.648Z,50.80
2023-05-18T03:19:51.589Z,51.00
2023-05-18T03:20:53.903Z,50.97
2023-05-18T03:21:58.166Z,50.97
2023-05-18T03:23:00.877Z,50.92
2023-05-18T03:24:03.622Z,51.11
2023-05-18T03:25:08.143Z,51.18
2023-05-18T03:26:11.894Z,51.23
2023-05-18T03:27:16.847Z,51.24
2023-05-18T03:28:22.766Z,51.42
2023-05-18T03:29:25.099Z,51.40
2023-05-18T03:30:27.705Z,51.38
2023-05-18T03:31:30.190Z,51.49
2023-05-18T03:32:39.474Z,51.34
2023-05-18T03:33:41.768Z,51.44
2023-05-18T03:34:45.079Z,51.38
2023-05-18T03:35:49.387Z,51.59
2023-05-18T03:36:52.686Z,51.54
2023-05-18T03:37:55.645Z,51.59
2023-05-18T03:38:57.973Z,51.56
2023-05-18T03:40:11.084Z,51.51
2023-05-18T03:41:13.770Z,51.69
2023-05-18T03:42:16.218Z,51.59
2023-05-18T03:43:19.089Z,51.57
2023-05-18T03:44:22.440Z,51.55
2023-05-18T03:45:25.054Z,51.69
2023-05-18T03:46:27.478Z,51.78
2023-05-18T03:47:30.233Z,51.58
2023-05-18T03:48:32.571Z,51.64
2023-05-18T03:49:35.268Z,51.67
2023-05-18T03:50:37.831Z,51.67
2023-05-18T03:51:40.628Z,51.78
2023-05-18T03:52:44.762Z,51.85
2023-05-18T03:53:47.376Z,51.62
2023-05-18T03:54:50.413Z,51.71
2023-05-18T03:55:52.777Z,51.75
2023-05-18T03:56:55.987Z,51.89
2023-05-18T03:57:59.390Z,51.80
2023-05-18T03:59:02.245Z,52.01
2023-05-18T04:00:08.055Z,51.91
2023-05-18T04:01:19.718Z,51.81
2023-05-18T04:02:22.310Z,51.85
2023-05-18T04:03:27.278Z,51.78
2023-05-18T04:04:31.408Z,51.80
2023-05-18T04:05:34.015Z,51.80
2023-05-18T04:06:36.330Z,51.63
2023-05-18T04:07:44.409Z,51.58
2023-05-18T04:08:46.873Z,51.46
2023-05-18T04:09:49.627Z,51.50
2023-05-18T04:10:52.844Z,51.62
2023-05-18T04:11:56.053Z,51.41
2023-05-18T04:12:58.535Z,51.31
2023-05-18T04:14:01.310Z,51.29
2023-05-18T04:15:04.237Z,51.41
2023-05-18T04:16:08.194Z,51.31
2023-05-18T04:17:10.741Z,51.52
2023-05-18T04:18:13.935Z,51.52
2023-05-18T04:19:19.478Z,51.45
2023-05-18T04:20:21.770Z,51.55
2023-05-18T04:21:24.080Z,51.60
2023-05-18T04:22:30.027Z,51.63
2023-05-18T04:23:39.522Z,51.58
2023-05-18T04:24:43.232Z,51.34
2023-05-18T04:25:45.830Z,51.20
2023-05-18T04:26:49.325Z,51.34
2023-05-18T04:27:53.076Z,51.16
2023-05-18T04:29:00.423Z,51.29
2023-05-18T04:30:03.040Z,51.27
2023-05-18T04:31:06.287Z,51.34
2023-05-18T04:32:09.068Z,51.10
2023-05-18T04:33:16.037Z,51.04
2023-05-18T04:34:20.401Z,51.07
2023-05-18T04:35:25.454Z,50.93
2023-05-18T04:36:30.839Z,50.82
2023-05-18T04:37:34.682Z,50.61
2023-05-18T04:38:38.634Z,50.47
2023-05-18T04:39:42.490Z,50.64
2023-05-18T04:40:47.413Z,50.39
2023-05-18T04:41:50.969Z,50.41
2023-05-18T04:42:53.405Z,50.08
2023-05-18T04:44:03.768Z,49.95
2023-05-18T04:45:06.836Z,50.03
2023-05-18T04:46:09.597Z,49.65
2023-05-18T04:47:11.962Z,49.46
2023-05-18T04:48:14.588Z,49.35
2023-05-18T04:49:16.966Z,49.08
2023-05-18T04:50:20.213Z,49.04
2023-05-18T04:51:22.679Z,48.62
2023-05-18T04:52:25.114Z,48.33
2023-05-18T04:53:27.710Z,48.11
2023-05-18T04:54:33.094Z,48.14
2023-05-18T04:55:35.717Z,47.90
2023-05-18T04:56:43.760Z,47.87
2023-05-18T04:57:46.056Z,47.65
2023-05-18T04:58:49.834Z,47.35
2023-05-18T04:59:53.470Z,47.21
2023-05-18T05:00:57.665Z,47.14
2023-05-18T05:02:01.555Z,46.93
2023-05-18T05:03:04.110Z,46.56
2023-05-18T05:04:07.587Z,46.33
2023-05-18T05:05:10.050Z,46.30
2023-05-18T05:06:12.806Z,46.13
2023-05-18T05:07:15.133Z,45.98
2023-05-18T05:08:21.355Z,45.71
2023-05-18T05:09:23.682Z,45.62
2023-05-18T05:10:26.595Z,45.44
2023-05-18T05:11:29.302Z,45.37
2023-05-18T05:12:32.919Z,45.20
2023-05-18T05:13:36.384Z,45.15
2023-05-18T05:14:38.773Z,44.83
2023-05-18T05:15:41.396Z,44.76
2023-05-18T05:16:43.978Z,44.43
2023-05-18T05:17:47.836Z,44.57
2023-05-18T05:18:50.355Z,44.28
2023-05-18T05:19:52.863Z,44.17
2023-05-18T05:20:55.198Z,44.13
2023-05-18T05:21:58.230Z,43.38
2023-05-18T05:23:01.695Z,43.13
2023-05-18T05:24:06.308Z,43.19
2023-05-18T05:25:09.012Z,43.34
2023-05-18T05:26:12.676Z,42.91
2023-05-18T05:27:16.557Z,42.64
2023-05-18T05:28:19.155Z,42.45
2023-05-18T05:29:22.629Z,42.12
2023-05-18T05:30:25.020Z,42.06
2023-05-18T05:31:27.497Z,41.58
2023-05-18T05:33:42.010Z,40.91
2023-05-18T05:34:47.105Z,40.83
2023-05-18T05:35:53.361Z,40.36
2023-05-18T05:36:55.761Z,40.18
2023-05-18T05:37:58.856Z,40.42
2023-05-18T05:39:01.217Z,40.19
2023-05-18T05:40:06.649Z,39.72
2023-05-18T05:41:13.791Z,39.31
2023-05-18T05:42:17.495Z,39.02
2023-05-18T05:43:19.790Z,38.75
2023-05-18T05:44:24.409Z,38.74
2023-05-18T05:45:28.941Z,38.37
2023-05-18T05:46:34.340Z,38.32
2023-05-18T05:47:37.661Z,37.82
2023-05-18T05:48:40.453Z,37.59
2023-05-18T05:49:43.188Z,37.49
2023-05-18T05:50:47.057Z,37.13
2023-05-18T05:51:51.029Z,36.88
2023-05-18T05:52:54.788Z,36.84
2023-05-18T05:53:58.828Z,36.62
2023-05-18T05:55:01.313Z,36.22
2023-05-18T05:56:03.975Z,36.16
2023-05-18T05:57:08.572Z,35.59
2023-05-18T05:58:11.374Z,35.83
2023-05-18T05:59:13.845Z,35.56
2023-05-18T06:00:16.561Z,35.72
2023-05-18T06:01:29.303Z,35.58
2023-05-18T06:02:32.129Z,35.58
2023-05-18T06:03:36.186Z,35.11
2023-05-18T06:04:41.856Z,35.34
2023-05-18T06:05:44.878Z,35.26
2023-05-18T06:06:49.567Z,35.18
2023-05-18T06:07:52.989Z,35.38
2023-05-18T06:08:55.618Z,35.03
2023-05-18T06:09:59.273Z,34.97
2023-05-18T06:11:02.073Z,34.23
2023-05-18T06:12:05.450Z,34.40
2023-05-18T06:13:08.948Z,34.03
2023-05-18T06:14:24.034Z,34.00
2023-05-18T06:15:27.146Z,33.49
2023-05-18T06:16:29.538Z,33.25
2023-05-18T06:17:32.088Z,32.98
2023-05-18T06:18:36.567Z,33.36
2023-05-18T06:19:40.730Z,32.38
2023-05-18T06:20:43.072Z,32.35
2023-05-18T06:21:45.659Z,32.29
2023-05-18T06:22:48.511Z,32.43
2023-05-18T06:23:58.919Z,32.08
2023-05-18T06:25:16.026Z,32.27
2023-05-18T06:26:38.533Z,32.14
2023-05-18T06:28:01.180Z,31.99
2023-05-18T06:29:32.867Z,31.64
2023-05-18T06:31:04.470Z,31.58
2023-05-18T06:32:23.049Z,31.67
2023-05-18T06:33:29.545Z,31.89
2023-05-18T06:34:34.782Z,31.56
2023-05-18T06:35:37.089Z,31.06
2023-05-18T06:36:39.523Z,30.70
2023-05-18T06:37:41.854Z,30.26
2023-05-18T06:38:44.195Z,30.38
2023-05-18T06:39:46.526Z,30.44
2023-05-18T06:40:49.060Z,29.84
2023-05-18T06:41:52.315Z,30.28
2023-05-18T06:42:58.465Z,30.07
2023-05-18T06:44:12.790Z,30.39
2023-05-18T06:45:37.050Z,30.60
2023-05-18T06:46:49.199Z,30.62
2023-05-18T06:47:58.680Z,30.26
2023-05-18T06:49:02.587Z,29.81
2023-05-18T06:50:08.321Z,29.30
2023-05-18T06:51:11.194Z,29.51
2023-05-18T06:52:13.945Z,29.58
2023-05-18T06:53:18.605Z,29.35
2023-05-18T06:54:20.982Z,29.88
2023-05-18T06:55:23.807Z,29.50
2023-05-18T06:56:26.833Z,29.22
2023-05-18T06:57:32.189Z,29.07
2023-05-18T06:58:35.006Z,28.41
2023-05-18T06:59:41.319Z,28.06
2023-05-18T07:00:44.024Z,27.60
2023-05-18T07:01:48.227Z,27.15
2023-05-18T07:02:51.738Z,27.18
2023-05-18T07:03:54.298Z,26.62
2023-05-18T07:04:58.214Z,26.20
2023-05-18T07:06:00.909Z,26.46
2023-05-18T07:07:03.728Z,26.50
2023-05-18T07:08:07.655Z,26.42
2023-05-18T07:09:10.058Z,25.98
2023-05-18T07:10:12.461Z,25.79
2023-05-18T07:11:15.065Z,26.12
2023-05-18T07:12:17.780Z,25.82
2023-05-18T07:13:21.131Z,26.22
2023-05-18T07:14:24.237Z,26.21
2023-05-18T07:15:26.825Z,25.99
2023-05-18T07:16:29.313Z,25.66
2023-05-18T07:17:31.866Z,25.92
2023-05-18T07:18:34.296Z,25.75
2023-05-18T07:19:36.653Z,25.93
2023-05-18T07:20:38.968Z,25.51
2023-05-18T07:21:41.440Z,25.42
2023-05-18T07:22:44.128Z,25.76
2023-05-18T07:23:46.418Z,25.90
2023-05-18T07:24:49.812Z,25.64
2023-05-18T07:25:52.555Z,25.64
2023-05-18T07:26:54.925Z,25.57
2023-05-18T07:27:57.275Z,25.70
2023-05-18T07:28:59.561Z,25.61
2023-05-18T07:30:02.003Z,25.23
2023-05-18T07:31:05.079Z,25.00
2023-05-18T07:32:07.750Z,25.15
2023-05-18T07:33:10.855Z,24.68
2023-05-18T07:34:13.302Z,24.54
2023-05-18T07:35:17.211Z,24.77
2023-05-18T07:36:19.551Z,24.53
2023-05-18T07:37:22.419Z,24.29
2023-05-18T07:38:26.417Z,24.67
2023-05-18T07:39:30.070Z,24.67
2023-05-18T07:40:32.639Z,24.98
2023-05-18T07:41:35.134Z,24.07
2023-05-18T07:42:39.176Z,24.54
2023-05-18T07:43:41.714Z,24.43
2023-05-18T07:44:44.095Z,24.32
2023-05-18T07:45:46.409Z,24.73
2023-05-18T07:46:48.716Z,25.39
2023-05-18T07:47:51.154Z,24.72
2023-05-18T07:48:53.556Z,24.74
2023-05-18T07:49:56.121Z,24.53
2023-05-18T07:50:58.575Z,24.80
2023-05-18T07:52:07.387Z,25.11
2023-05-18T07:53:09.670Z,24.90
2023-05-18T07:54:12.038Z,25.10
2023-05-18T07:55:14.363Z,25.07
2023-05-18T07:56:17.014Z,24.60
2023-05-18T07:57:20.136Z,24.77
2023-05-18T07:58:22.414Z,24.21
2023-05-18T07:59:24.785Z,24.64
2023-05-18T08:00:28.206Z,25.15
2023-05-18T08:01:38.779Z,25.30
2023-05-18T08:02:41.186Z,25.19
2023-05-18T08:03:43.845Z,25.16
2023-05-18T08:04:47.770Z,24.90
2023-05-18T08:05:50.108Z,24.79
2023-05-18T08:06:55.046Z,25.20
2023-05-18T08:07:57.293Z,25.17
2023-05-18T08:08:59.637Z,25.32
2023-05-18T08:10:01.942Z,25.03
2023-05-18T08:11:05.206Z,25.20
2023-05-18T08:12:07.989Z,24.95
2023-05-18T08:13:10.371Z,24.89
2023-05-18T08:14:12.725Z,25.31
2023-05-18T08:15:15.042Z,25.22
2023-05-18T08:16:17.355Z,24.93
2023-05-18T08:17:19.984Z,24.76
2023-05-18T08:18:23.406Z,24.73
2023-05-18T08:19:26.184Z,25.07
2023-05-18T08:20:31.450Z,24.76
2023-05-18T08:21:33.784Z,25.09
2023-05-18T08:22:36.502Z,25.21
2023-05-18T08:23:39.126Z,24.70
2023-05-18T08:24:41.566Z,24.62
2023-05-18T08:25:43.966Z,24.65
2023-05-18T08:26:46.245Z,24.87
2023-05-18T08:27:48.847Z,24.62
2023-05-18T08:28:51.179Z,25.01
2023-05-18T08:29:53.487Z,24.78
2023-05-18T08:30:56.215Z,24.77
2023-05-18T08:31:58.681Z,24.76
2023-05-18T08:33:02.412Z,25.05
2023-05-18T08:34:06.362Z,25.35
2023-05-18T08:35:10.550Z,25.21
2023-05-18T08:36:12.924Z,24.97
2023-05-18T08:37:15.187Z,25.20
2023-05-18T08:38:17.626Z,25.27
2023-05-18T08:39:20.127Z,25.01
2023-05-18T08:40:22.451Z,25.34
2023-05-18T08:41:39.084Z,25.50
2023-05-18T08:42:54.712Z,25.44
2023-05-18T08:44:03.292Z,25.25
2023-05-18T08:45:14.320Z,25.47
2023-05-18T08:46:22.187Z,25.66
2023-05-18T08:47:26.895Z,25.42
2023-05-18T08:48:32.414Z,25.42
2023-05-18T08:49:35.683Z,25.64
2023-05-18T08:50:38.581Z,26.03
2023-05-18T08:51:45.363Z,25.79
2023-05-18T08:52:48.656Z,26.12
2023-05-18T08:53:54.882Z,26.05
2023-05-18T08:54:57.719Z,25.97
2023-05-18T08:56:01.658Z,26.36
2023-05-18T08:57:10.221Z,26.34
2023-05-18T08:58:16.830Z,26.49
2023-05-18T08:59:24.162Z,26.57
2023-05-18T09:00:27.267Z,27.04
2023-05-18T09:01:29.887Z,26.81
2023-05-18T09:02:33.911Z,26.71
2023-05-18T09:03:38.168Z,26.92
2023-05-18T09:04:42.755Z,26.74
2023-05-18T09:05:46.488Z,27.13
2023-05-18T09:06:49.746Z,27.26
2023-05-18T09:07:52.483Z,27.34
2023-05-18T09:08:57.884Z,27.41
2023-05-18T09:10:01.850Z,27.50
2023-05-18T09:11:06.631Z,27.61
2023-05-18T09:12:09.815Z,27.72
2023-05-18T09:13:13.878Z,27.91
2023-05-18T09:14:16.443Z,27.87
2023-05-18T09:15:19.033Z,27.74
2023-05-18T09:16:21.506Z,28.16
2023-05-18T09:17:24.222Z,28.03
2023-05-18T09:18:28.412Z,27.55
2023-05-18T09:19:31.145Z,27.64
2023-05-18T09:20:33.490Z,27.48
2023-05-18T09:21:36.010Z,27.55
2023-05-18T09:22:41.258Z,27.67
2023-05-18T09:23:44.830Z,28.01
2023-05-18T09:24:47.792Z,27.83
2023-05-18T09:25:52.574Z,27.78
2023-05-18T09:26:54.960Z,27.62
2023-05-18T09:27:57.343Z,27.75
2023-05-18T09:29:00.377Z,27.62
2023-05-18T09:30:03.753Z,27.48
2023-05-18T09:31:12.841Z,27.62
2023-05-18T09:32:15.269Z,27.55
2023-05-18T09:33:19.357Z,27.33
2023-05-18T09:34:21.909Z,27.68
2023-05-18T09:35:24.930Z,27.95
2023-05-18T09:36:29.401Z,27.90
2023-05-18T09:37:32.316Z,27.62
2023-05-18T09:38:39.821Z,27.93
2023-05-18T09:39:42.545Z,27.79
2023-05-18T09:40:46.223Z,27.63
2023-05-18T09:41:55.913Z,27.92
2023-05-18T09:42:58.261Z,27.63
2023-05-18T09:44:05.345Z,27.63
2023-05-18T09:45:10.866Z,27.74
2023-05-18T09:46:13.968Z,27.76
2023-05-18T09:47:17.806Z,27.73
2023-05-18T09:48:21.158Z,27.92
2023-05-18T09:49:24.711Z,27.75
2023-05-18T09:50:27.585Z,27.67
2023-05-18T09:51:30.153Z,27.34
2023-05-18T09:52:41.199Z,27.27
2023-05-18T09:54:06.903Z,27.24
2023-05-18T09:55:10.614Z,27.12
2023-05-18T09:56:15.349Z,27.17
2023-05-18T09:57:21.148Z,27.43
2023-05-18T09:58:23.782Z,27.10
2023-05-18T09:59:26.232Z,27.29
2023-05-18T10:00:28.978Z,27.45
2023-05-18T10:01:31.381Z,27.50
2023-05-18T10:02:38.384Z,27.59
2023-05-18T10:03:41.166Z,27.36
2023-05-18T10:04:44.855Z,27.61
2023-05-18T10:05:48.220Z,27.57
2023-05-18T10:06:51.476Z,27.36
2023-05-18T10:07:57.471Z,27.33
2023-05-18T10:09:04.912Z,27.66
2023-05-18T10:10:09.121Z,27.26
2023-05-18T10:11:12.066Z,27.61
2023-05-18T10:12:20.053Z,27.06
2023-05-18T10:13:26.623Z,27.32
2023-05-18T10:14:36.575Z,27.57
2023-05-18T10:15:47.348Z,27.78
2023-05-18T10:17:00.355Z,27.81
2023-05-18T10:18:11.155Z,28.05
2023-05-18T10:19:13.589Z,28.23
2023-05-18T10:20:19.478Z,27.82
2023-05-18T10:21:22.793Z,27.73
2023-05-18T10:22:26.411Z,27.87
2023-05-18T10:23:32.000Z,27.18
2023-05-18T10:24:38.391Z,26.83
2023-05-18T10:25:42.770Z,27.04
2023-05-18T10:26:47.817Z,27.12
2023-05-18T10:27:51.636Z,27.32
2023-05-18T10:28:57.006Z,26.98
2023-05-18T10:29:59.847Z,27.18
2023-05-18T10:31:02.227Z,27.01
2023-05-18T10:32:07.681Z,27.29
2023-05-18T10:33:20.636Z,27.46
2023-05-18T10:34:32.995Z,27.93
2023-05-18T10:35:38.575Z,27.50
2023-05-18T10:36:43.021Z,27.29
2023-05-18T10:37:49.272Z,27.06
2023-05-18T10:38:52.332Z,27.10
2023-05-18T10:39:56.098Z,26.64
2023-05-18T10:41:04.674Z,27.00
2023-05-18T10:42:08.904Z,27.37
2023-05-18T10:43:12.017Z,27.15
2023-05-18T10:44:15.956Z,27.27
2023-05-18T10:45:18.883Z,27.24
2023-05-18T10:46:26.801Z,27.06
2023-05-18T10:47:29.751Z,27.25
2023-05-18T10:48:32.337Z,26.85
2023-05-18T10:49:36.502Z,26.95
2023-05-18T10:50:40.325Z,27.04
2023-05-18T10:51:47.515Z,27.24
2023-05-18T10:52:50.467Z,27.28
2023-05-18T10:53:56.120Z,26.97
2023-05-18T10:55:00.292Z,26.77
2023-05-18T10:56:02.816Z,26.53
2023-05-18T10:57:05.499Z,26.74
2023-05-18T10:58:14.315Z,26.36
2023-05-18T10:59:18.718Z,26.74
2023-05-18T11:00:21.353Z,26.42
2023-05-18T11:01:23.936Z,26.60
2023-05-18T11:02:27.601Z,26.75
2023-05-18T11:03:33.256Z,26.52
2023-05-18T11:04:36.437Z,26.79
2023-05-18T11:05:42.899Z,27.25
2023-05-18T11:06:54.710Z,26.68
2023-05-18T11:08:01.689Z,27.03
2023-05-18T11:09:04.214Z,26.71
2023-05-18T11:10:11.518Z,27.21
2023-05-18T11:11:16.489Z,26.96
2023-05-18T11:12:23.034Z,26.94
2023-05-18T11:13:29.661Z,27.26
2023-05-18T11:14:32.729Z,27.09
2023-05-18T11:15:53.978Z,27.45
2023-05-18T11:17:31.830Z,27.48
2023-05-18T11:18:50.616Z,27.22
2023-05-18T11:20:08.993Z,27.57
2023-05-18T11:21:36.456Z,27.33
2023-05-18T11:22:43.030Z,27.37
2023-05-18T11:24:16.622Z,27.79
2023-05-18T11:25:25.740Z,27.56
2023-05-18T11:26:31.515Z,27.38
2023-05-18T11:27:34.365Z,27.55
2023-05-18T11:28:43.781Z,27.38
2023-05-18T11:29:47.740Z,27.18
2023-05-18T11:30:51.653Z,27.01
2023-05-18T11:31:55.253Z,27.06
2023-05-18T11:33:25.116Z,27.04
2023-05-18T11:34:46.398Z,27.08
2023-05-18T11:36:11.730Z,26.80
2023-05-18T11:37:16.067Z,26.83
2023-05-18T11:38:18.653Z,27.13
2023-05-18T11:39:25.076Z,27.04
2023-05-18T11:40:47.960Z,27.29
2023-05-18T11:42:01.266Z,27.34
2023-05-18T11:43:05.024Z,27.14
2023-05-18T11:44:18.277Z,26.80
2023-05-18T11:45:20.608Z,26.67
2023-05-18T11:46:22.889Z,26.99
2023-05-18T11:47:31.789Z,26.44
2023-05-18T11:48:34.484Z,26.82
2023-05-18T11:49:42.946Z,27.04
2023-05-18T11:50:47.129Z,26.75
2023-05-18T11:52:01.741Z,26.79
2023-05-18T11:53:04.165Z,27.14
2023-05-18T11:54:09.254Z,27.07
2023-05-18T11:55:14.560Z,27.19
2023-05-18T11:56:17.507Z,27.13
2023-05-18T11:57:25.139Z,27.38
2023-05-18T11:58:27.443Z,27.55
2023-05-18T11:59:32.230Z,27.16
2023-05-18T12:00:36.310Z,27.34
2023-05-18T12:01:38.709Z,27.49
2023-05-18T12:02:45.882Z,27.42
2023-05-18T12:03:50.836Z,27.34
2023-05-18T12:04:55.154Z,27.21
2023-05-18T12:06:00.827Z,26.97
2023-05-18T12:07:06.850Z,27.07
2023-05-18T12:08:09.856Z,27.03
2023-05-18T12:09:13.585Z,26.79
2023-05-18T12:10:16.352Z,27.24
2023-05-18T12:11:18.824Z,27.44
2023-05-18T12:12:23.539Z,27.07
2023-05-18T12:13:27.887Z,26.64
2023-05-18T12:14:31.542Z,26.70
2023-05-18T12:15:34.144Z,27.02
2023-05-18T12:16:37.033Z,27.21
2023-05-18T12:17:42.848Z,27.15
2023-05-18T12:18:52.131Z,27.30
2023-05-18T12:19:54.775Z,27.16
2023-05-18T12:20:57.146Z,27.03
2023-05-18T12:21:59.541Z,27.26
2023-05-18T12:23:01.830Z,27.34
2023-05-18T12:24:04.697Z,27.39
2023-05-18T12:25:08.030Z,26.68
2023-05-18T12:26:10.438Z,27.07
2023-05-18T12:27:13.374Z,27.30
2023-05-18T12:28:17.340Z,27.01
2023-05-18T12:29:22.055Z,27.09
2023-05-18T12:30:26.290Z,27.11
2023-05-18T12:31:28.661Z,27.03
2023-05-18T12:32:31.107Z,27.39
2023-05-18T12:33:34.404Z,27.14
2023-05-18T12:34:37.786Z,27.20
2023-05-18T12:35:40.562Z,26.86
2023-05-18T12:36:54.848Z,27.03
2023-05-18T12:38:00.750Z,27.54
2023-05-18T12:39:03.352Z,27.66
2023-05-18T12:40:07.339Z,27.49
2023-05-18T12:41:09.780Z,27.51
2023-05-18T12:42:14.544Z,27.33
2023-05-18T12:43:16.898Z,27.13
2023-05-18T12:44:19.243Z,27.31
2023-05-18T12:45:24.680Z,27.19
2023-05-18T12:46:27.239Z,27.00
2023-05-18T12:47:33.303Z,27.27
2023-05-18T12:48:37.262Z,27.00
2023-05-18T12:49:48.248Z,26.99
2023-05-18T12:50:51.933Z,27.21
2023-05-18T12:51:57.389Z,26.89
2023-05-18T12:53:00.725Z,26.82
2023-05-18T12:54:04.265Z,27.03
2023-05-18T12:55:10.828Z,27.08
2023-05-18T12:56:13.270Z,27.03
2023-05-18T12:57:16.604Z,27.18
2023-05-18T12:58:21.106Z,26.87
2023-05-18T12:59:23.413Z,27.36
2023-05-18T13:00:26.033Z,27.57
2023-05-18T13:01:28.482Z,27.18
2023-05-18T13:02:37.381Z,27.54
2023-05-18T13:03:41.253Z,27.49
2023-05-18T13:04:43.760Z,27.30
2023-05-18T13:05:47.328Z,27.27
2023-05-18T13:06:50.162Z,27.72
2023-05-18T13:07:52.915Z,27.37
2023-05-18T13:08:58.342Z,27.64
2023-05-18T13:10:02.728Z,27.76
2023-05-18T13:12:14.176Z,27.91
2023-05-18T13:13:16.807Z,27.97
2023-05-18T13:14:23.569Z,28.07
2023-05-18T13:15:25.976Z,28.03
2023-05-18T13:16:30.677Z,28.23
2023-05-18T13:17:33.223Z,28.02
2023-05-18T13:18:35.849Z,27.94
2023-05-18T13:19:38.242Z,27.87
2023-05-18T13:20:51.233Z,28.03
2023-05-18T13:21:58.841Z,28.18
2023-05-18T13:23:07.577Z,27.96
2023-05-18T13:24:09.898Z,28.20
2023-05-18T13:25:12.197Z,28.17
2023-05-18T13:26:15.293Z,28.52
2023-05-18T13:27:17.613Z,28.21
2023-05-18T13:28:21.701Z,28.29
2023-05-18T13:29:24.033Z,28.38
2023-05-18T13:30:26.445Z,28.41
2023-05-18T13:31:29.947Z,28.36
2023-05-18T13:32:33.688Z,27.95
2023-05-18T13:33:36.130Z,28.39
2023-05-18T13:34:38.445Z,27.96
2023-05-18T13:35:42.418Z,28.03
2023-05-18T13:36:44.801Z,28.45
2023-05-18T13:37:49.121Z,28.48
2023-05-18T13:38:52.520Z,28.41
2023-05-18T13:39:54.894Z,28.24
2023-05-18T13:40:57.176Z,28.78
2023-05-18T13:42:00.318Z,28.52
2023-05-18T13:43:02.658Z,28.72
2023-05-18T13:44:05.182Z,29.02
2023-05-18T13:45:08.211Z,28.96
2023-05-18T13:46:10.715Z,28.87
2023-05-18T13:47:13.034Z,28.83
2023-05-18T13:48:15.517Z,29.24
2023-05-18T13:49:19.405Z,28.92
2023-05-18T13:50:23.204Z,28.86
2023-05-18T13:51:25.680Z,28.71
2023-05-18T13:52:28.134Z,28.80
2023-05-18T13:53:30.814Z,28.57
2023-05-18T13:54:33.154Z,28.63
2023-05-18T13:55:36.000Z,28.44
2023-05-18T13:56:38.339Z,28.62
2023-05-18T13:57:41.105Z,28.25